KCNO

Chino Airport

Chino, California, USA
METAR KCNO 171553Z 35003KT 6SM HZ CLR 26/19 A3008 RMK AO2 SLP180 T02560194
Observed Flight Rules
Aug-17 @ 15:53 UTC (59 minutes ago) Visual Flight Rules
Wind Visibility Clouds Conditions
350° at 3 knots 6 miles
  • Clear skies
  • Haze
Temperatures Readings
Current 26°C / 79°F
Dewpoint 19°C / 66°F
Humidity 65%
Altimeter 30.08" Hg
Pressure 1018 hPa
Elevation 207
METAR KCNO 171553Z 35003KT 6SM HZ CLR 26/19 A3008 RMK AO2 SLP180 T02560194
Observed Flight Rules
Aug-17 @ 15:53 UTC
(59 minutes ago)
VFR
Wind Visibility
350° at 3 knots 6 miles
Clouds
  • Clear skies
Conditions
  • Haze
Temperature Dewpoint
26°C / 79°F 19°C / 66°F
Humidity Altimeter Pressure
65% 30.08" Hg 1018 hPa